createdAt,value
2018-06-22T00:00:47.905Z,13.00
2018-06-22T00:03:16.816Z,12.90
2018-06-22T00:05:44.412Z,12.90
2018-06-22T00:08:13.076Z,12.90
2018-06-22T00:10:40.777Z,12.90
2018-06-22T00:13:09.519Z,12.80
2018-06-22T00:15:37.448Z,12.80
2018-06-22T00:18:10.323Z,12.80
2018-06-22T00:20:39.373Z,12.80
2018-06-22T00:23:07.068Z,12.80
2018-06-22T00:25:36.182Z,12.70
2018-06-22T00:28:03.843Z,12.70
2018-06-22T00:30:31.588Z,12.70
2018-06-22T00:33:00.191Z,12.70
2018-06-22T00:35:32.097Z,12.60
2018-06-22T00:38:03.832Z,12.60
2018-06-22T00:40:32.593Z,12.50
2018-06-22T00:43:01.266Z,12.50
2018-06-22T00:45:28.846Z,12.50
2018-06-22T00:47:57.360Z,12.50
2018-06-22T00:50:24.963Z,12.50
2018-06-22T00:52:53.575Z,12.50
2018-06-22T00:55:21.173Z,12.40
2018-06-22T00:57:49.814Z,12.40
2018-06-22T01:00:17.459Z,12.30
2018-06-22T01:02:47.323Z,12.30
2018-06-22T01:05:15.960Z,12.30
2018-06-22T01:07:46.346Z,12.30
2018-06-22T01:10:14.038Z,12.30
2018-06-22T01:12:42.800Z,12.20
2018-06-22T01:15:10.482Z,12.20
2018-06-22T01:17:38.076Z,12.20
2018-06-22T01:20:06.144Z,12.20
2018-06-22T01:22:35.636Z,12.20
2018-06-22T01:25:03.547Z,12.20
2018-06-22T01:27:33.213Z,12.20
2018-06-22T01:30:01.831Z,12.10
2018-06-22T01:32:29.858Z,12.00
2018-06-22T01:34:58.536Z,12.00
2018-06-22T01:37:26.534Z,11.90
2018-06-22T01:39:55.335Z,11.90
2018-06-22T01:42:23.277Z,11.90
2018-06-22T01:44:59.345Z,11.80
2018-06-22T01:47:32.632Z,11.80
2018-06-22T01:50:01.371Z,11.80
2018-06-22T01:52:31.085Z,11.80
2018-06-22T01:54:58.684Z,11.80
2018-06-22T01:57:26.281Z,11.70
2018-06-22T01:59:53.971Z,11.70
2018-06-22T02:02:22.787Z,11.70
2018-06-22T02:04:51.679Z,11.70
2018-06-22T02:07:19.293Z,11.70
2018-06-22T02:09:46.966Z,11.60
2018-06-22T02:12:14.617Z,11.60
2018-06-22T02:14:43.911Z,11.60
2018-06-22T02:17:12.632Z,11.50
2018-06-22T02:19:40.315Z,11.50
2018-06-22T02:22:08.130Z,11.50
2018-06-22T02:24:37.053Z,11.40
2018-06-22T02:27:06.726Z,11.40
2018-06-22T02:29:34.542Z,11.40
2018-06-22T02:32:03.250Z,11.40
2018-06-22T02:34:34.466Z,11.40
2018-06-22T02:37:02.347Z,11.40
2018-06-22T02:39:30.093Z,11.30
2018-06-22T02:41:58.704Z,11.30
2018-06-22T02:44:27.367Z,11.30
2018-06-22T02:46:56.406Z,11.30
2018-06-22T02:49:25.201Z,11.30
2018-06-22T02:51:58.141Z,11.20
2018-06-22T02:54:26.946Z,11.20
2018-06-22T02:56:55.681Z,11.10
2018-06-22T02:59:23.484Z,11.10
2018-06-22T03:01:51.140Z,11.00
2018-06-22T03:04:20.975Z,11.00
2018-06-22T03:06:51.976Z,10.90
2018-06-22T03:09:20.659Z,10.90
2018-06-22T03:11:49.266Z,10.90
2018-06-22T03:14:16.976Z,11.00
2018-06-22T03:16:46.710Z,10.90
2018-06-22T03:19:14.359Z,10.90
2018-06-22T03:21:42.087Z,10.90
2018-06-22T03:24:09.620Z,10.90
2018-06-22T03:26:37.363Z,11.00
2018-06-22T03:29:05.044Z,11.00
2018-06-22T03:31:33.609Z,11.00
2018-06-22T03:34:02.188Z,11.00
2018-06-22T03:36:29.776Z,11.00
2018-06-22T03:38:58.401Z,11.00
2018-06-22T03:41:32.143Z,11.00
2018-06-22T03:44:00.740Z,11.00
2018-06-22T03:46:33.535Z,11.00
2018-06-22T03:49:01.148Z,11.00
2018-06-22T03:51:28.720Z,11.00
2018-06-22T03:53:56.362Z,10.90
2018-06-22T03:56:24.038Z,10.80
2018-06-22T03:58:52.683Z,10.90
2018-06-22T04:01:21.228Z,10.90
2018-06-22T04:03:52.475Z,10.90
2018-06-22T04:06:20.346Z,10.90
2018-06-22T04:08:47.997Z,11.00
2018-06-22T04:11:15.671Z,11.00
2018-06-22T04:13:43.314Z,11.10
2018-06-22T04:16:11.873Z,11.10
2018-06-22T04:18:39.444Z,11.20
2018-06-22T04:21:07.062Z,11.20
2018-06-22T04:23:34.632Z,11.30
2018-06-22T04:26:02.257Z,11.40
2018-06-22T04:28:30.953Z,11.40
2018-06-22T04:30:59.526Z,11.40
2018-06-22T04:33:27.122Z,11.40
2018-06-22T04:35:54.774Z,11.50
2018-06-22T04:38:22.485Z,11.50
2018-06-22T04:40:51.141Z,11.60
2018-06-22T04:43:18.689Z,11.60
2018-06-22T04:45:47.271Z,11.70
2018-06-22T04:48:15.845Z,11.80
2018-06-22T04:50:45.101Z,11.90
2018-06-22T04:53:14.866Z,11.90
2018-06-22T04:55:42.630Z,12.00
2018-06-22T04:58:10.408Z,12.00
2018-06-22T05:00:38.974Z,12.00
2018-06-22T05:03:07.856Z,12.00
2018-06-22T05:05:36.684Z,12.00
2018-06-22T05:08:05.530Z,12.10
2018-06-22T05:10:34.214Z,12.20
2018-06-22T05:13:02.044Z,12.30
2018-06-22T05:15:29.705Z,12.30
2018-06-22T05:17:57.301Z,12.30
2018-06-22T05:20:27.659Z,12.30
2018-06-22T05:22:56.477Z,12.40
2018-06-22T05:25:24.110Z,12.50
2018-06-22T05:27:53.079Z,12.50
2018-06-22T05:30:21.689Z,12.60
2018-06-22T05:32:50.171Z,12.60
2018-06-22T05:35:20.007Z,12.70
2018-06-22T05:37:48.981Z,12.70
2018-06-22T05:40:18.840Z,12.70
2018-06-22T05:42:46.548Z,12.70
2018-06-22T05:45:15.614Z,12.80
2018-06-22T05:47:43.259Z,12.80
2018-06-22T05:50:13.425Z,12.80
2018-06-22T05:52:41.413Z,12.80
2018-06-22T05:55:10.897Z,12.80
2018-06-22T05:57:39.628Z,12.80
2018-06-22T06:00:10.624Z,13.00
2018-06-22T06:02:39.541Z,13.00
2018-06-22T06:05:07.270Z,13.10
2018-06-22T06:07:36.325Z,13.20
2018-06-22T06:10:04.126Z,13.30
2018-06-22T06:12:32.562Z,13.40
2018-06-22T06:15:00.154Z,13.50
2018-06-22T06:17:30.074Z,13.50
2018-06-22T06:19:57.752Z,13.50
2018-06-22T06:22:27.396Z,13.40
2018-06-22T06:24:55.131Z,13.30
2018-06-22T06:27:30.312Z,13.20
2018-06-22T06:29:58.125Z,13.30
2018-06-22T06:32:25.866Z,13.40
2018-06-22T06:34:53.570Z,13.40
2018-06-22T06:37:22.037Z,13.50
2018-06-22T06:39:52.010Z,13.50
2018-06-22T06:42:24.217Z,13.50
2018-06-22T06:44:58.268Z,13.60
2018-06-22T06:47:26.098Z,13.60
2018-06-22T06:49:53.757Z,13.70
2018-06-22T06:52:22.350Z,13.70
2018-06-22T06:54:49.966Z,13.80
2018-06-22T06:57:17.735Z,13.80
2018-06-22T06:59:49.999Z,13.70
2018-06-22T07:02:18.701Z,13.70
2018-06-22T07:04:46.369Z,13.70
2018-06-22T07:07:13.895Z,13.70
2018-06-22T07:09:41.517Z,13.80
2018-06-22T07:12:28.199Z,13.80
2018-06-22T07:14:56.928Z,13.80
2018-06-22T07:17:24.979Z,13.60
2018-06-22T07:19:54.005Z,13.60
2018-06-22T07:22:33.665Z,13.60
2018-06-22T07:25:01.412Z,13.60
2018-06-22T07:27:36.341Z,13.50
2018-06-22T07:30:04.107Z,13.60
2018-06-22T07:32:32.007Z,13.50
2018-06-22T07:34:59.954Z,13.50
2018-06-22T07:37:27.482Z,13.50
2018-06-22T07:39:55.056Z,13.50
2018-06-22T07:42:22.749Z,13.50
2018-06-22T07:44:50.470Z,13.50
2018-06-22T07:47:18.076Z,13.40
2018-06-22T07:49:46.875Z,13.50
2018-06-22T07:52:14.501Z,13.50
2018-06-22T07:54:42.094Z,13.40
2018-06-22T07:57:10.297Z,13.50
2018-06-22T07:59:38.195Z,13.40
2018-06-22T08:02:07.049Z,13.50
2018-06-22T08:04:34.772Z,13.50
2018-06-22T08:07:02.415Z,13.50
2018-06-22T08:09:30.405Z,13.60
2018-06-22T08:11:59.052Z,13.70
2018-06-22T08:14:26.615Z,13.80
2018-06-22T08:16:54.276Z,13.70
2018-06-22T08:19:22.067Z,13.70
2018-06-22T08:21:49.128Z,13.70
2018-06-22T08:24:16.644Z,13.70
2018-06-22T08:26:44.169Z,13.80
2018-06-22T08:29:11.694Z,13.80
2018-06-22T08:31:39.263Z,13.80
2018-06-22T08:34:06.886Z,13.80
2018-06-22T08:36:39.135Z,13.80
2018-06-22T08:39:07.635Z,13.70
2018-06-22T08:41:35.489Z,13.70
2018-06-22T08:44:02.966Z,13.70
2018-06-22T08:46:30.894Z,13.70
2018-06-22T08:48:58.472Z,13.60
2018-06-22T08:51:25.983Z,13.70
2018-06-22T08:53:53.508Z,13.60
2018-06-22T08:56:21.045Z,13.60
2018-06-22T08:58:48.738Z,13.70
2018-06-22T09:01:16.438Z,13.70
2018-06-22T09:03:43.988Z,13.70
2018-06-22T09:06:11.652Z,13.70
2018-06-22T09:08:39.252Z,13.70
2018-06-22T09:11:07.079Z,13.80
2018-06-22T09:13:34.648Z,13.80
2018-06-22T09:16:03.336Z,13.80
2018-06-22T09:18:30.845Z,13.70
2018-06-22T09:20:58.322Z,13.80
2018-06-22T09:23:25.879Z,13.80
2018-06-22T09:25:55.442Z,13.80
2018-06-22T09:28:23.247Z,13.90
2018-06-22T09:30:50.752Z,14.00
2018-06-22T09:33:18.259Z,14.10
2018-06-22T09:35:45.826Z,14.10
2018-06-22T09:38:13.719Z,14.20
2018-06-22T09:40:41.429Z,14.20
2018-06-22T09:43:09.044Z,14.30
2018-06-22T09:45:36.651Z,14.30
2018-06-22T09:48:04.445Z,14.30
2018-06-22T09:50:31.970Z,14.30
2018-06-22T09:52:59.624Z,14.30
2018-06-22T09:55:27.071Z,14.30
2018-06-22T09:57:55.609Z,14.30
2018-06-22T10:00:23.094Z,14.30
2018-06-22T10:02:50.941Z,14.30
2018-06-22T10:05:18.729Z,14.30
2018-06-22T10:07:46.328Z,14.30
2018-06-22T10:10:14.841Z,14.30
2018-06-22T10:12:42.649Z,14.30
2018-06-22T10:15:10.719Z,14.40
2018-06-22T10:17:38.345Z,14.40
2018-06-22T10:20:06.068Z,14.40
2018-06-22T10:22:33.532Z,14.40
2018-06-22T10:25:01.047Z,14.50
2018-06-22T10:27:28.603Z,14.50
2018-06-22T10:29:56.223Z,14.60
2018-06-22T10:32:23.726Z,14.70
2018-06-22T10:34:51.432Z,14.80
2018-06-22T10:37:19.014Z,14.90
2018-06-22T10:39:47.558Z,14.90
2018-06-22T10:42:15.850Z,15.00
2018-06-22T10:44:43.436Z,15.10
2018-06-22T10:47:11.354Z,15.10
2018-06-22T10:49:39.006Z,15.30
2018-06-22T10:52:07.085Z,15.40
2018-06-22T10:54:34.652Z,15.40
2018-06-22T10:57:02.277Z,15.50
2018-06-22T10:59:30.207Z,15.70
2018-06-22T11:01:57.776Z,15.90
2018-06-22T11:04:25.260Z,16.00
2018-06-22T11:06:52.794Z,16.30
2018-06-22T11:09:20.585Z,16.50
2018-06-22T11:11:48.062Z,16.70
2018-06-22T11:14:15.538Z,16.70
2018-06-22T11:16:43.190Z,16.60
2018-06-22T11:19:10.731Z,16.70
2018-06-22T11:21:38.752Z,16.50
2018-06-22T11:24:08.257Z,16.50
2018-06-22T11:26:36.546Z,16.40
2018-06-22T11:29:04.069Z,16.20
2018-06-22T11:31:31.565Z,16.10
2018-06-22T11:33:59.131Z,16.10
2018-06-22T11:36:26.802Z,16.10
2018-06-22T11:38:54.270Z,16.20
2018-06-22T11:41:22.135Z,16.20
2018-06-22T11:43:51.794Z,16.20
2018-06-22T11:46:19.377Z,16.30
2018-06-22T11:48:46.891Z,16.50
2018-06-22T11:51:14.503Z,16.60
2018-06-22T11:53:42.019Z,16.60
2018-06-22T11:56:09.694Z,17.10
2018-06-22T11:58:37.434Z,17.30
2018-06-22T12:01:05.168Z,17.60
2018-06-22T12:03:33.065Z,17.50
2018-06-22T12:06:00.854Z,17.70
2018-06-22T12:08:28.413Z,17.80
2018-06-22T12:10:55.946Z,17.90
2018-06-22T12:13:23.615Z,18.00
2018-06-22T12:15:51.291Z,17.70
2018-06-22T12:18:18.969Z,17.90
2018-06-22T12:20:46.662Z,18.20
2018-06-22T12:23:14.195Z,18.10
2018-06-22T12:25:42.099Z,18.10
2018-06-22T12:28:09.768Z,18.10
2018-06-22T12:30:37.588Z,17.80
2018-06-22T12:33:05.216Z,17.60
2018-06-22T12:35:32.656Z,17.40
2018-06-22T12:38:00.335Z,17.40
2018-06-22T12:40:27.985Z,17.30
2018-06-22T12:42:55.451Z,17.30
2018-06-22T12:45:24.527Z,17.10
2018-06-22T12:47:52.122Z,17.00
2018-06-22T12:50:19.615Z,16.90
2018-06-22T12:52:47.282Z,16.90
2018-06-22T12:55:14.797Z,17.00
2018-06-22T12:57:42.712Z,17.20
2018-06-22T13:00:10.371Z,17.10
2018-06-22T13:02:38.115Z,16.90
2018-06-22T13:05:05.936Z,16.90
2018-06-22T13:07:33.574Z,17.00
2018-06-22T13:10:01.383Z,17.00
2018-06-22T13:12:29.080Z,16.90
2018-06-22T13:14:56.604Z,16.90
2018-06-22T13:17:24.127Z,17.00
2018-06-22T13:19:51.746Z,16.90
2018-06-22T13:22:19.339Z,16.90
2018-06-22T13:24:46.872Z,17.00
2018-06-22T13:27:14.471Z,17.00
2018-06-22T13:29:41.988Z,17.00
2018-06-22T13:32:09.846Z,17.00
2018-06-22T13:34:37.782Z,16.90
2018-06-22T13:37:05.437Z,16.80
2018-06-22T13:39:33.030Z,16.80
2018-06-22T13:42:00.590Z,16.80
2018-06-22T13:44:28.182Z,16.60
2018-06-22T13:46:55.920Z,16.40
2018-06-22T13:49:23.589Z,16.40
2018-06-22T13:51:51.129Z,16.50
2018-06-22T13:54:18.610Z,16.80
2018-06-22T13:56:46.197Z,16.90
2018-06-22T13:59:13.939Z,16.80
2018-06-22T14:01:41.793Z,16.70
2018-06-22T14:04:14.920Z,16.90
2018-06-22T14:06:48.170Z,16.90
2018-06-22T14:09:15.733Z,16.90
2018-06-22T14:11:43.758Z,17.00
2018-06-22T14:14:11.325Z,17.10
2018-06-22T14:16:39.394Z,17.10
2018-06-22T14:19:07.468Z,17.20
2018-06-22T14:21:35.372Z,17.30
2018-06-22T14:24:03.108Z,17.30
2018-06-22T14:26:30.825Z,17.40
2018-06-22T14:28:58.550Z,17.40
2018-06-22T14:31:27.083Z,17.50
2018-06-22T14:33:54.645Z,17.40
2018-06-22T14:36:22.432Z,17.60
2018-06-22T14:38:50.045Z,17.70
2018-06-22T14:41:17.951Z,17.90
2018-06-22T14:43:45.542Z,18.00
2018-06-22T14:46:13.515Z,18.00
2018-06-22T14:48:41.059Z,17.80
2018-06-22T14:51:09.606Z,17.70
2018-06-22T14:53:42.834Z,17.70
2018-06-22T14:56:18.062Z,17.90
2018-06-22T14:58:51.280Z,17.90
2018-06-22T15:01:24.542Z,18.00
2018-06-22T15:03:57.922Z,18.10
2018-06-22T15:06:31.317Z,18.10
2018-06-22T15:08:58.834Z,17.90
2018-06-22T15:11:27.436Z,17.80
2018-06-22T15:13:55.016Z,17.70
2018-06-22T15:16:23.850Z,17.50
2018-06-22T15:18:51.490Z,17.40
2018-06-22T15:21:19.886Z,17.40
2018-06-22T15:23:51.126Z,17.40
2018-06-22T15:26:18.858Z,17.40
2018-06-22T15:28:46.340Z,17.40
2018-06-22T15:31:14.866Z,17.40
2018-06-22T15:33:48.255Z,17.40
2018-06-22T15:36:21.555Z,17.30
2018-06-22T15:38:55.723Z,17.20
2018-06-22T15:41:29.068Z,17.10
2018-06-22T15:44:02.123Z,17.10
2018-06-22T15:46:35.383Z,17.20
2018-06-22T15:49:08.842Z,17.20
2018-06-22T15:51:41.983Z,17.20
2018-06-22T15:54:15.135Z,17.20
2018-06-22T15:56:42.716Z,17.30
2018-06-22T15:59:11.710Z,17.30
2018-06-22T16:01:40.354Z,17.40
2018-06-22T16:04:11.948Z,17.40
2018-06-22T16:06:39.627Z,17.40
2018-06-22T16:09:09.059Z,17.50
2018-06-22T16:11:36.795Z,17.50
2018-06-22T16:14:10.986Z,17.50
2018-06-22T16:16:44.185Z,17.40
2018-06-22T16:19:17.402Z,17.50
2018-06-22T16:21:52.857Z,17.60
2018-06-22T16:24:26.046Z,17.70
2018-06-22T16:26:59.263Z,17.80
2018-06-22T16:29:26.786Z,17.70
2018-06-22T16:31:55.341Z,17.60
2018-06-22T16:34:22.975Z,17.30
2018-06-22T16:36:50.579Z,17.30
2018-06-22T16:39:18.127Z,17.30
2018-06-22T16:41:45.834Z,17.30
2018-06-22T16:44:13.544Z,17.30
2018-06-22T16:46:41.355Z,17.20
2018-06-22T16:49:09.095Z,17.10
2018-06-22T16:51:36.789Z,17.20
2018-06-22T16:54:04.600Z,17.30
2018-06-22T16:56:32.966Z,17.40
2018-06-22T16:59:01.933Z,17.40
2018-06-22T17:01:30.004Z,17.30
2018-06-22T17:03:58.550Z,17.30
2018-06-22T17:06:26.171Z,17.20
2018-06-22T17:08:59.929Z,17.00
2018-06-22T17:11:33.048Z,17.00
2018-06-22T17:14:06.240Z,17.00
2018-06-22T17:16:40.809Z,17.00
2018-06-22T17:19:08.729Z,17.00
2018-06-22T17:21:36.888Z,17.00
2018-06-22T17:24:04.584Z,16.80
2018-06-22T17:26:32.133Z,16.80
2018-06-22T17:28:59.793Z,16.80
2018-06-22T17:31:27.615Z,16.80
2018-06-22T17:33:56.572Z,16.80
2018-06-22T17:36:24.330Z,16.90
2018-06-22T17:38:52.117Z,17.00
2018-06-22T17:41:19.703Z,16.90
2018-06-22T17:43:47.327Z,16.90
2018-06-22T17:46:15.858Z,16.90
2018-06-22T17:48:44.618Z,16.80
2018-06-22T17:51:14.529Z,16.80
2018-06-22T17:53:42.454Z,16.80
2018-06-22T17:56:15.662Z,16.80
2018-06-22T17:58:48.891Z,16.80
2018-06-22T18:01:22.165Z,16.80
2018-06-22T18:03:56.339Z,16.70
2018-06-22T18:08:34.511Z,16.70
2018-06-22T18:11:08.850Z,16.70
2018-06-22T18:13:37.542Z,16.60
2018-06-22T18:16:06.464Z,16.60
2018-06-22T18:18:34.223Z,16.70
2018-06-22T18:21:01.902Z,16.70
2018-06-22T18:23:29.894Z,16.70
2018-06-22T18:25:58.579Z,16.80
2018-06-22T18:28:26.649Z,16.80
2018-06-22T18:30:54.238Z,16.80
2018-06-22T18:33:21.915Z,16.90
2018-06-22T18:35:49.582Z,16.90
2018-06-22T18:38:17.140Z,16.90
2018-06-22T18:40:44.658Z,16.80
2018-06-22T18:43:20.931Z,16.80
2018-06-22T18:45:50.032Z,16.80
2018-06-22T18:48:17.662Z,16.70
2018-06-22T18:50:45.240Z,16.70
2018-06-22T18:53:19.565Z,16.70
2018-06-22T18:55:53.771Z,16.70
2018-06-22T18:58:27.189Z,16.60
2018-06-22T19:01:01.715Z,16.50
2018-06-22T19:03:42.024Z,16.40
2018-06-22T19:06:30.577Z,16.40
2018-06-22T19:08:58.310Z,16.30
2018-06-22T19:11:27.621Z,16.30
2018-06-22T19:13:56.214Z,16.20
2018-06-22T19:16:25.922Z,16.20
2018-06-22T19:19:15.088Z,16.10
2018-06-22T19:21:42.902Z,16.10
2018-06-22T19:27:14.650Z,16.10
2018-06-22T19:29:54.824Z,16.10
2018-06-22T19:32:25.513Z,16.00
2018-06-22T19:35:00.555Z,16.00
2018-06-22T19:37:35.903Z,16.00
2018-06-22T19:40:04.661Z,15.90
2018-06-22T19:42:32.302Z,15.90
2018-06-22T19:45:05.919Z,15.90
2018-06-22T19:47:45.815Z,15.80
2018-06-22T19:52:27.767Z,15.80
2018-06-22T19:54:55.531Z,15.80
2018-06-22T19:57:24.319Z,15.70
2018-06-22T19:59:53.226Z,15.80
2018-06-22T20:02:21.696Z,15.70
2018-06-22T20:04:52.821Z,15.70
2018-06-22T20:07:22.864Z,15.70
2018-06-22T20:09:52.843Z,15.70
2018-06-22T20:12:22.048Z,15.70
2018-06-22T20:14:53.400Z,15.70
2018-06-22T20:17:22.154Z,15.70
2018-06-22T20:19:51.127Z,15.60
2018-06-22T20:22:22.108Z,15.60
2018-06-22T20:24:55.948Z,15.70
2018-06-22T20:30:30.127Z,15.60
2018-06-22T20:32:57.854Z,15.60
2018-06-22T20:35:36.779Z,15.50
2018-06-22T20:38:14.002Z,15.50
2018-06-22T20:40:47.220Z,15.50
2018-06-22T20:43:21.035Z,15.50
2018-06-22T20:45:50.642Z,15.40
2018-06-22T20:48:24.147Z,15.40
2018-06-22T20:50:51.951Z,15.30
2018-06-22T20:53:20.095Z,15.30
2018-06-22T20:55:47.987Z,15.30
2018-06-22T20:58:15.953Z,15.20
2018-06-22T21:00:43.998Z,15.20
2018-06-22T21:03:11.535Z,15.10
2018-06-22T21:05:39.208Z,15.00
2018-06-22T21:08:07.053Z,15.00
2018-06-22T21:10:37.132Z,14.90
2018-06-22T21:13:05.745Z,14.90
2018-06-22T21:15:35.237Z,14.80
2018-06-22T21:18:02.814Z,14.70
2018-06-22T21:20:30.486Z,14.70
2018-06-22T21:22:58.310Z,14.60
2018-06-22T21:25:26.103Z,14.60
2018-06-22T21:27:59.504Z,14.60
2018-06-22T21:30:33.094Z,14.50
2018-06-22T21:33:06.807Z,14.50
2018-06-22T21:35:40.125Z,14.50
2018-06-22T21:38:13.196Z,14.50
2018-06-22T21:40:40.809Z,14.40
2018-06-22T21:43:08.422Z,14.40
2018-06-22T21:45:38.193Z,14.30
2018-06-22T21:48:05.915Z,14.30
2018-06-22T21:50:33.487Z,14.30
2018-06-22T21:53:01.369Z,14.20
2018-06-22T21:55:28.989Z,14.20
2018-06-22T21:57:57.111Z,14.20
2018-06-22T22:00:28.664Z,14.20
2018-06-22T22:02:57.296Z,14.10
2018-06-22T22:05:25.127Z,14.10
2018-06-22T22:07:53.334Z,14.00
2018-06-22T22:10:26.486Z,14.00
2018-06-22T22:12:54.912Z,13.90
2018-06-22T22:15:22.690Z,13.90
2018-06-22T22:17:50.238Z,13.80
2018-06-22T22:20:19.071Z,13.80
2018-06-22T22:22:46.755Z,13.80
2018-06-22T22:25:14.423Z,13.70
2018-06-22T22:27:42.093Z,13.70
2018-06-22T22:30:09.895Z,13.70
2018-06-22T22:32:37.582Z,13.60
2018-06-22T22:35:05.418Z,13.60
2018-06-22T22:37:33.054Z,13.60
2018-06-22T22:40:00.729Z,13.50
2018-06-22T22:42:28.436Z,13.40
2018-06-22T22:44:56.132Z,13.40
2018-06-22T22:47:23.824Z,13.40
2018-06-22T22:49:52.311Z,13.30
2018-06-22T22:52:21.328Z,13.30
2018-06-22T22:54:50.856Z,13.30
2018-06-22T22:57:18.855Z,13.30
2018-06-22T22:59:46.674Z,13.20
2018-06-22T23:02:16.707Z,13.20
2018-06-22T23:04:44.992Z,13.20
2018-06-22T23:07:23.133Z,13.10
2018-06-22T23:09:58.648Z,13.00
2018-06-22T23:12:26.559Z,13.00
2018-06-22T23:14:54.812Z,13.00
2018-06-22T23:23:36.477Z,12.90
2018-06-22T23:26:04.975Z,12.70
2018-06-22T23:28:32.995Z,12.70
2018-06-22T23:31:02.947Z,12.70
2018-06-22T23:33:31.144Z,12.70
2018-06-22T23:36:00.215Z,12.70
2018-06-22T23:38:30.706Z,12.50
2018-06-22T23:41:00.330Z,12.40
2018-06-22T23:43:28.906Z,12.20
2018-06-22T23:45:57.428Z,12.20
2018-06-22T23:48:41.309Z,12.10
2018-06-22T23:51:09.582Z,12.20
2018-06-22T23:53:40.259Z,12.10
2018-06-22T23:56:11.183Z,12.10
2018-06-22T23:58:38.944Z,12.00
